Chelmsford, MA

1:59 PM EDT on July 24, 2016 (GMT -0400)
Pine Hill | | Change Station

Elev 289 ft 42.59 °N, 71.39 °W | Updated 2 minutes ago

Clear
Clear
88.2 °F
Feels Like 88 °F
N
2.0
Wind Variable Wind from West
Gusts 6.0 mph

Today
High -- | Low -- °F
--% Chance of Precip.
Yesterday
High -- | Low -- °F
Precip. -- in
Pressure 29.96 in
Visibility 10.0 miles
Clouds Clear
Heat Index 88 °F
Dew Point 59 °F
Humidity 38%
Rainfall Not available.
Snow Depth Not available.
5:29 AM 8:13 PM
Waning Gibbous, 74% visible
METAR KBED 241756Z 27007KT 250V310 10SM CLR 31/13 A2992 RMK AO2 SLP143 T03060128 10311 20228 55001
Pressure 29.96 in
Visibility 10.0 miles
Clouds Clear
Heat Index 88 °F
Dew Point 59 °F
Humidity 38%
Rainfall Not available.
Snow Depth Not available.
5:29 AM 8:13 PM
Waning Gibbous, 74% visible
METAR KBED 241756Z 27007KT 250V310 10SM CLR 31/13 A2992 RMK AO2 SLP143 T03060128 10311 20228 55001

10-Day Weather Forecast

Almanac

Astronomy

Jul. 24, 2016 Rise Set
Actual Time
Civil Twilight
Nautical Twilight
Astronomical Twilight
Moon
Length of Visible Light
Length of Day
Tomorrow will be .
, % of the Moon is Illuminated

Today's Extremes

State Highs State Lows

Community

WunderPhotos

Upload Photos

1,927,134 photos uploaded!

WunderBlog® & News

Nearby

Air Quality

  Air Quality AQ Index Pollutant
Not available.

Snow Depth

Station Depth Elevation

Earthquake Activity

City Distance Mag. Time & Date
Minimum magnitude displayed is 2.5.

Coastal Water Temperatures

Place Temperature

Stations

Nearby Weather Stations

Station Location Temp. Windchill Dew Point Humidity Wind Precip. Elev Updated Type
                   

Watches & Warnings

There are currently no watches in effect.